createdAt,value
2023-02-11T00:02:11.705Z,35.97
2023-02-11T00:04:38.092Z,35.55
2023-02-11T00:07:11.292Z,38.08
2023-02-11T00:09:44.292Z,37.38
2023-02-11T00:12:10.603Z,36.92
2023-02-11T00:14:43.306Z,36.95
2023-02-11T00:17:16.284Z,36.70
2023-02-11T00:19:42.583Z,37.40
2023-02-11T00:22:15.303Z,37.20
2023-02-11T00:24:41.613Z,38.38
2023-02-11T00:27:14.327Z,40.85
2023-02-11T00:29:40.652Z,37.53
2023-02-11T00:32:15.322Z,38.33
2023-02-11T00:34:48.329Z,38.20
2023-02-11T00:37:21.364Z,38.47
2023-02-11T00:39:49.893Z,35.35
2023-02-11T00:42:22.305Z,41.42
2023-02-11T00:44:55.363Z,37.45
2023-02-11T00:47:21.755Z,41.22
2023-02-11T00:49:54.411Z,38.47
2023-02-11T00:52:27.362Z,38.75
2023-02-11T00:54:53.756Z,35.60
2023-02-11T00:57:26.383Z,33.90
2023-02-11T00:59:59.349Z,36.83
2023-02-11T01:02:32.351Z,33.50
2023-02-11T01:05:06.440Z,39.47
2023-02-11T01:07:53.355Z,36.63
2023-02-11T01:10:26.368Z,34.92
2023-02-11T01:12:52.715Z,36.22
2023-02-11T01:15:26.421Z,35.08
2023-02-11T01:17:52.781Z,35.53
2023-02-11T01:20:30.396Z,37.17
2023-02-11T01:22:56.922Z,38.60
2023-02-11T01:25:32.802Z,44.03
2023-02-11T01:28:05.437Z,38.60
2023-02-11T01:30:32.012Z,40.17
2023-02-11T01:32:58.406Z,38.15
2023-02-11T01:35:32.402Z,37.72
2023-02-11T01:37:58.766Z,37.70
2023-02-11T01:40:31.443Z,37.80
2023-02-11T01:42:57.814Z,38.92
2023-02-11T01:46:03.493Z,37.30
2023-02-11T01:48:38.164Z,34.97
2023-02-11T01:51:28.461Z,38.65
2023-02-11T01:54:15.149Z,39.28
2023-02-11T01:57:11.512Z,37.83
2023-02-11T01:59:45.704Z,37.85
2023-02-11T02:02:21.459Z,36.15
2023-02-11T02:04:55.519Z,34.97
2023-02-11T02:07:40.469Z,38.60
2023-02-11T02:10:20.750Z,37.33
2023-02-11T02:12:53.473Z,37.75
2023-02-11T02:15:30.506Z,37.20
2023-02-11T02:18:06.507Z,38.03
2023-02-11T02:23:21.502Z,35.42
2023-02-11T02:26:04.300Z,36.47
2023-02-11T02:28:59.543Z,37.78
2023-02-11T02:32:26.529Z,33.85
2023-02-11T02:35:21.591Z,33.67
2023-02-11T02:37:56.629Z,33.17
2023-02-11T02:40:40.544Z,34.55
2023-02-11T02:43:16.543Z,40.70
2023-02-11T02:48:38.552Z,38.50
2023-02-11T02:52:07.548Z,40.13
2023-02-11T02:54:57.422Z,36.30
2023-02-11T02:57:33.571Z,36.95
2023-02-11T03:00:42.200Z,35.60
2023-02-11T03:03:23.601Z,36.83
2023-02-11T03:06:02.083Z,34.10
2023-02-11T03:08:54.585Z,38.10
2023-02-11T03:11:29.039Z,35.85
2023-02-11T03:14:03.570Z,38.30
2023-02-11T03:16:30.798Z,35.15
2023-02-11T03:19:13.586Z,37.03
2023-02-11T03:21:43.546Z,39.05
2023-02-11T03:24:22.604Z,35.22
2023-02-11T03:26:59.631Z,34.25
2023-02-11T03:29:58.609Z,36.33
2023-02-11T03:32:35.604Z,39.08
2023-02-11T03:35:14.613Z,36.85
2023-02-11T03:37:48.558Z,37.58
2023-02-11T03:40:26.769Z,35.80
2023-02-11T03:42:58.265Z,39.65
2023-02-11T03:45:29.396Z,40.15
2023-02-11T03:48:15.679Z,39.70
2023-02-11T03:50:50.647Z,37.45
2023-02-11T03:53:24.734Z,38.08
2023-02-11T03:56:00.659Z,36.38
2023-02-11T03:58:33.661Z,36.65
2023-02-11T04:01:08.733Z,35.40
2023-02-11T04:03:35.636Z,39.17
2023-02-11T04:06:08.723Z,38.45
2023-02-11T04:08:41.778Z,37.00
2023-02-11T04:11:21.700Z,35.50
2023-02-11T04:13:48.024Z,35.38
2023-02-11T04:16:20.795Z,35.80
2023-02-11T04:18:53.718Z,32.53
2023-02-11T04:21:20.088Z,38.47
2023-02-11T04:23:46.472Z,35.38
2023-02-11T04:26:19.710Z,37.03
2023-02-11T04:28:52.698Z,38.25
2023-02-11T04:31:19.107Z,39.47
2023-02-11T04:33:52.739Z,35.92
2023-02-11T04:36:19.073Z,40.10
2023-02-11T04:38:52.757Z,37.55
2023-02-11T04:41:19.096Z,38.53
2023-02-11T04:43:45.630Z,36.38
2023-02-11T04:46:18.915Z,38.30
2023-02-11T04:48:45.287Z,36.00
2023-02-11T04:51:11.669Z,37.58
2023-02-11T04:53:44.838Z,39.22
2023-02-11T04:56:11.241Z,39.47
2023-02-11T04:58:37.559Z,40.38
2023-02-11T05:01:19.848Z,37.92
2023-02-11T05:03:46.248Z,42.10
2023-02-11T05:06:19.798Z,42.55
2023-02-11T05:08:54.880Z,40.53
2023-02-11T05:11:34.797Z,43.22
2023-02-11T05:14:01.173Z,37.83
2023-02-11T05:16:34.790Z,41.00
2023-02-11T05:19:01.191Z,38.00
2023-02-11T05:21:33.830Z,36.70
2023-02-11T05:24:06.802Z,40.90
2023-02-11T05:26:39.810Z,42.38
2023-02-11T05:29:06.150Z,42.92
2023-02-11T05:31:33.184Z,41.53
2023-02-11T05:34:05.827Z,43.33
2023-02-11T05:36:33.477Z,41.85
2023-02-11T05:38:59.908Z,39.58
2023-02-11T05:41:32.823Z,40.60
2023-02-11T05:43:59.162Z,40.17
2023-02-11T05:46:31.934Z,38.50
2023-02-11T05:48:58.452Z,38.47
2023-02-11T05:51:31.852Z,39.15
2023-02-11T05:53:58.218Z,39.35
2023-02-11T05:56:30.873Z,38.83
2023-02-11T05:58:59.747Z,38.38
2023-02-11T06:01:34.857Z,40.38
2023-02-11T06:04:01.297Z,41.17
2023-02-11T06:06:27.747Z,38.05
2023-02-11T06:09:00.861Z,41.78
2023-02-11T06:11:33.925Z,40.85
2023-02-11T06:14:07.917Z,36.10
2023-02-11T06:16:34.249Z,38.08
2023-02-11T06:19:06.900Z,35.75
2023-02-11T06:21:43.491Z,40.70
2023-02-11T06:24:28.565Z,38.92
2023-02-11T06:27:11.893Z,39.20
2023-02-11T06:29:44.926Z,40.95
2023-02-11T06:32:39.423Z,39.63
2023-02-11T06:35:12.332Z,40.92
2023-02-11T06:37:39.620Z,38.95
2023-02-11T06:40:12.951Z,40.20
2023-02-11T06:42:40.387Z,38.65
2023-02-11T06:45:15.935Z,36.47
2023-02-11T06:47:48.957Z,39.90
2023-02-11T06:50:21.985Z,37.83
2023-02-11T06:52:48.331Z,41.28
2023-02-11T06:55:21.646Z,38.42
2023-02-11T06:57:48.016Z,38.63
2023-02-11T07:00:21.962Z,39.08
2023-02-11T07:02:48.298Z,37.80
2023-02-11T07:05:14.729Z,40.70
2023-02-11T07:07:48.003Z,39.70
2023-02-11T07:10:21.322Z,44.78
2023-02-11T07:12:47.625Z,43.35
2023-02-11T07:15:21.057Z,42.90
2023-02-11T07:17:47.363Z,39.08
2023-02-11T07:20:14.905Z,37.08
2023-02-11T07:22:48.021Z,39.60
2023-02-11T07:25:14.415Z,40.17
2023-02-11T07:27:46.989Z,39.47
2023-02-11T07:30:21.028Z,43.83
2023-02-11T07:32:47.456Z,35.75
2023-02-11T07:35:21.020Z,34.67
2023-02-11T07:37:47.324Z,37.10
2023-02-11T07:40:20.008Z,36.85
2023-02-11T07:42:46.370Z,33.55
2023-02-11T07:45:13.952Z,33.88
2023-02-11T07:47:49.073Z,33.88
2023-02-11T07:50:24.029Z,35.92
2023-02-11T07:52:50.359Z,35.67
2023-02-11T07:55:23.050Z,37.00
2023-02-11T07:57:49.464Z,34.25
2023-02-11T08:00:23.070Z,33.95
2023-02-11T08:02:49.412Z,33.70
2023-02-11T08:05:15.809Z,33.40
2023-02-11T08:07:49.116Z,34.53
2023-02-11T08:10:30.081Z,34.30
2023-02-11T08:12:56.516Z,36.17
2023-02-11T08:15:23.025Z,33.90
2023-02-11T08:17:56.080Z,34.92
2023-02-11T08:20:22.401Z,33.13
2023-02-11T08:22:55.095Z,32.22
2023-02-11T08:25:28.080Z,33.30
2023-02-11T08:27:54.417Z,33.30
2023-02-11T08:30:27.661Z,32.58
2023-02-11T08:32:54.125Z,32.38
2023-02-11T08:35:27.151Z,32.88
2023-02-11T08:37:53.592Z,32.35
2023-02-11T08:40:27.141Z,32.20
2023-02-11T08:43:00.164Z,33.80
2023-02-11T08:45:26.467Z,30.17
2023-02-11T08:47:59.303Z,33.67
2023-02-11T08:50:28.265Z,31.27
2023-02-11T08:52:55.132Z,31.08
2023-02-11T08:55:28.255Z,31.45
2023-02-11T08:57:54.550Z,28.98
2023-02-11T09:00:21.283Z,31.60
2023-02-11T09:02:54.178Z,29.48
2023-02-11T09:05:20.549Z,31.48
2023-02-11T09:07:53.171Z,31.40
2023-02-11T09:10:41.165Z,31.55
2023-02-11T09:13:14.200Z,30.23
2023-02-11T09:15:40.569Z,32.00
2023-02-11T09:18:14.189Z,29.67
2023-02-11T09:20:47.179Z,31.35
2023-02-11T09:23:13.725Z,27.52
2023-02-11T09:25:47.207Z,29.05
2023-02-11T09:28:13.595Z,27.20
2023-02-11T09:30:46.306Z,29.15
2023-02-11T09:33:12.700Z,25.95
2023-02-11T09:35:45.211Z,26.83
2023-02-11T09:38:18.245Z,26.27
2023-02-11T09:40:45.606Z,24.75
2023-02-11T09:43:27.346Z,24.45
2023-02-11T09:45:55.671Z,23.52
2023-02-11T09:48:23.054Z,24.02
2023-02-11T09:51:00.215Z,25.17
2023-02-11T09:53:29.504Z,27.90
2023-02-11T09:56:06.224Z,26.65
2023-02-11T09:58:42.276Z,25.23
2023-02-11T10:01:41.662Z,25.88
2023-02-11T10:04:50.333Z,23.90
2023-02-11T10:07:35.952Z,23.25
2023-02-11T10:10:47.305Z,23.70
2023-02-11T10:13:45.382Z,24.30
2023-02-11T10:16:45.403Z,27.92
2023-02-11T10:20:10.245Z,25.65
2023-02-11T10:22:53.633Z,30.10
2023-02-11T10:25:27.763Z,27.10
2023-02-11T10:28:04.320Z,25.80
2023-02-11T10:30:36.056Z,24.70
2023-02-11T10:33:26.335Z,22.77
2023-02-11T10:35:52.909Z,22.73
2023-02-11T10:38:19.415Z,24.25
2023-02-11T10:40:52.626Z,23.05
2023-02-11T10:43:30.462Z,24.90
2023-02-11T10:45:57.667Z,22.35
2023-02-11T10:48:56.346Z,23.95
2023-02-11T10:51:31.347Z,24.48
2023-02-11T10:54:03.812Z,26.38
2023-02-11T10:56:40.398Z,22.60
2023-02-11T10:59:41.400Z,23.48
2023-02-11T11:02:31.849Z,24.65
2023-02-11T11:05:07.489Z,24.13
2023-02-11T11:07:34.999Z,22.42
2023-02-11T11:10:14.424Z,23.58
2023-02-11T11:12:54.447Z,22.77
2023-02-11T11:15:33.374Z,22.70
2023-02-11T11:18:24.601Z,23.48
2023-02-11T11:21:09.405Z,22.92
2023-02-11T11:23:36.921Z,22.17
2023-02-11T11:26:21.405Z,23.00
2023-02-11T11:28:53.806Z,23.08
2023-02-11T11:32:01.562Z,23.17
2023-02-11T11:34:44.435Z,21.55
2023-02-11T11:37:14.322Z,22.15
2023-02-11T11:39:47.473Z,21.73
2023-02-11T11:42:49.448Z,23.10
2023-02-11T11:45:22.508Z,22.45
2023-02-11T11:48:00.468Z,23.15
2023-02-11T11:50:36.749Z,21.77
2023-02-11T11:53:22.463Z,22.27
2023-02-11T11:56:00.094Z,21.08
2023-02-11T11:58:35.516Z,19.05
2023-02-11T12:01:09.547Z,19.80
2023-02-11T12:04:04.529Z,20.25
2023-02-11T12:09:40.478Z,19.20
2023-02-11T12:15:08.425Z,19.08
2023-02-11T12:18:06.505Z,19.52
2023-02-11T12:20:47.922Z,19.27
2023-02-11T12:23:20.532Z,19.20
2023-02-11T12:26:05.497Z,19.30
2023-02-11T12:28:37.058Z,19.25
2023-02-11T12:33:54.559Z,20.15
2023-02-11T12:36:40.444Z,20.73
2023-02-11T12:39:44.540Z,20.05
2023-02-11T12:42:42.617Z,18.58
2023-02-11T12:45:33.295Z,17.92
2023-02-11T12:48:33.554Z,18.20
2023-02-11T12:51:44.558Z,17.27
2023-02-11T12:54:35.579Z,17.52
2023-02-11T12:57:28.946Z,18.58
2023-02-11T13:00:13.649Z,17.60
2023-02-11T13:02:51.218Z,17.38
2023-02-11T13:05:33.726Z,19.23
2023-02-11T13:08:22.226Z,18.70
2023-02-11T13:11:05.674Z,17.67
2023-02-11T13:13:38.994Z,17.77
2023-02-11T13:16:26.646Z,20.08
2023-02-11T13:19:14.870Z,17.60
2023-02-11T13:22:17.628Z,17.38
2023-02-11T13:25:03.658Z,17.55
2023-02-11T13:27:47.681Z,17.50
2023-02-11T13:30:32.539Z,16.80
2023-02-11T13:33:07.671Z,16.77
2023-02-11T13:35:37.300Z,17.48
2023-02-11T13:38:25.667Z,17.20
2023-02-11T13:41:05.276Z,17.42
2023-02-11T13:43:40.704Z,17.20
2023-02-11T13:46:11.376Z,18.40
2023-02-11T13:48:51.648Z,17.98
2023-02-11T13:51:34.546Z,19.05
2023-02-11T13:54:07.763Z,17.27
2023-02-11T13:56:40.251Z,16.92
2023-02-11T13:59:33.678Z,16.65
2023-02-11T14:02:18.574Z,17.85
2023-02-11T14:05:46.787Z,17.38
2023-02-11T14:08:38.916Z,15.35
2023-02-11T14:11:18.703Z,15.90
2023-02-11T14:13:54.713Z,15.30
2023-02-11T14:16:36.879Z,15.40
2023-02-11T14:19:10.727Z,15.05
2023-02-11T14:22:23.847Z,13.52
2023-02-11T14:25:11.736Z,13.02
2023-02-11T14:28:03.785Z,14.35
2023-02-11T14:30:51.336Z,14.25
2023-02-11T14:33:48.744Z,15.02
2023-02-11T14:36:22.869Z,14.25
2023-02-11T14:39:28.810Z,16.92
2023-02-11T14:41:55.691Z,14.43
2023-02-11T14:44:37.770Z,14.90
2023-02-11T14:47:05.496Z,14.38
2023-02-11T14:49:36.415Z,14.35
2023-02-11T14:52:23.828Z,16.27
2023-02-11T14:54:51.278Z,14.55
2023-02-11T14:57:20.833Z,14.23
2023-02-11T15:00:08.862Z,12.80
2023-02-11T15:02:38.357Z,13.82
2023-02-11T15:05:26.830Z,14.32
2023-02-11T15:07:55.998Z,15.02
2023-02-11T15:11:03.041Z,14.00
2023-02-11T15:13:36.094Z,14.57
2023-02-11T15:16:15.960Z,13.63
2023-02-11T15:18:49.553Z,15.43
2023-02-11T15:21:37.839Z,15.32
2023-02-11T15:24:21.378Z,13.88
2023-02-11T15:27:07.982Z,14.02
2023-02-11T15:29:40.296Z,13.57
2023-02-11T15:32:19.992Z,14.07
2023-02-11T15:34:48.406Z,14.93
2023-02-11T15:37:30.901Z,15.60
2023-02-11T15:40:09.983Z,14.40
2023-02-11T15:42:52.587Z,14.60
2023-02-11T15:45:19.390Z,15.32
2023-02-11T15:47:58.899Z,13.82
2023-02-11T15:50:34.888Z,13.00
2023-02-11T15:53:12.868Z,14.23
2023-02-11T15:55:49.000Z,15.40
2023-02-11T15:58:15.458Z,15.20
2023-02-11T16:01:06.895Z,14.63
2023-02-11T16:03:39.921Z,16.38
2023-02-11T16:06:28.434Z,15.60
2023-02-11T16:09:10.928Z,13.73
2023-02-11T16:12:00.983Z,17.10
2023-02-11T16:14:33.945Z,16.25
2023-02-11T16:17:10.811Z,16.50
2023-02-11T16:19:51.428Z,14.27
2023-02-11T16:22:32.932Z,12.55
2023-02-11T16:25:06.012Z,13.00
2023-02-11T16:27:45.926Z,15.32
2023-02-11T16:30:27.352Z,14.00
2023-02-11T16:33:01.941Z,15.80
2023-02-11T16:35:28.254Z,15.00
2023-02-11T16:37:55.397Z,13.98
2023-02-11T16:40:30.018Z,15.13
2023-02-11T16:43:03.117Z,14.93
2023-02-11T16:45:29.460Z,14.88
2023-02-11T16:48:03.111Z,18.40
2023-02-11T16:50:29.870Z,17.35
2023-02-11T16:53:03.097Z,17.20
2023-02-11T16:55:29.803Z,15.05
2023-02-11T16:57:56.117Z,15.50
2023-02-11T17:00:30.578Z,15.23
2023-02-11T17:02:57.236Z,17.08
2023-02-11T17:05:25.696Z,17.75
2023-02-11T17:07:59.064Z,19.02
2023-02-11T17:10:45.997Z,17.30
2023-02-11T17:13:19.012Z,19.13
2023-02-11T17:15:52.420Z,15.15
2023-02-11T17:18:19.096Z,15.05
2023-02-11T17:20:46.696Z,14.60
2023-02-11T17:23:20.036Z,16.90
2023-02-11T17:25:46.331Z,15.90
2023-02-11T17:28:12.694Z,17.17
2023-02-11T17:30:48.153Z,17.13
2023-02-11T17:33:14.547Z,15.23
2023-02-11T17:35:42.316Z,17.60
2023-02-11T17:38:15.049Z,18.13
2023-02-11T17:40:41.535Z,16.23
2023-02-11T17:43:14.074Z,14.82
2023-02-11T17:45:41.761Z,14.65
2023-02-11T17:48:15.095Z,15.05
2023-02-11T17:50:41.430Z,17.27
2023-02-11T17:53:07.819Z,27.90
2023-02-11T17:55:42.100Z,16.45
2023-02-11T17:58:08.431Z,16.02
2023-02-11T18:00:34.872Z,18.25
2023-02-11T18:03:10.150Z,22.52
2023-02-11T18:05:36.994Z,19.23
2023-02-11T18:08:07.841Z,17.00
2023-02-11T18:10:42.192Z,14.50
2023-02-11T18:13:15.458Z,13.30
2023-02-11T18:15:41.813Z,16.02
2023-02-11T18:18:16.232Z,17.50
2023-02-11T18:20:43.169Z,18.63
2023-02-11T18:23:10.272Z,16.70
2023-02-11T18:25:45.171Z,16.17
2023-02-11T18:28:11.545Z,15.20
2023-02-11T18:30:44.333Z,18.85
2023-02-11T18:33:20.190Z,17.17
2023-02-11T18:40:50.439Z,15.68
2023-02-11T18:43:24.193Z,15.20
2023-02-11T18:45:51.249Z,14.98
2023-02-11T18:48:18.839Z,16.15
2023-02-11T18:50:53.303Z,13.05
2023-02-11T18:53:20.041Z,14.25
2023-02-11T18:55:47.401Z,16.48
2023-02-11T18:58:21.369Z,15.82
2023-02-11T19:00:49.332Z,15.30
2023-02-11T19:03:16.220Z,17.15
2023-02-11T19:05:54.508Z,23.20
2023-02-11T19:08:27.233Z,21.15
2023-02-11T19:11:00.281Z,16.17
2023-02-11T19:13:35.261Z,16.67
2023-02-11T19:16:05.733Z,18.25
2023-02-11T19:18:32.105Z,22.35
2023-02-11T19:21:06.274Z,19.48
2023-02-11T19:23:42.236Z,16.95
2023-02-11T19:26:15.258Z,18.35
2023-02-11T19:28:41.593Z,18.30
2023-02-11T19:31:08.895Z,19.17
2023-02-11T19:33:42.370Z,18.33
2023-02-11T19:36:11.644Z,19.30
2023-02-11T19:38:44.317Z,19.77
2023-02-11T19:41:12.113Z,18.05
2023-02-11T19:43:49.331Z,20.73
2023-02-11T19:46:16.038Z,23.45
2023-02-11T19:48:42.403Z,19.85
2023-02-11T19:51:17.335Z,20.70
2023-02-11T19:53:44.411Z,27.90
2023-02-11T19:56:12.571Z,21.48
2023-02-11T19:58:46.547Z,24.40
2023-02-11T20:01:18.247Z,22.75
2023-02-11T20:03:55.430Z,22.83
2023-02-11T20:06:24.957Z,21.13
2023-02-11T20:09:06.418Z,24.17
2023-02-11T20:11:56.343Z,47.15
2023-02-11T20:14:29.355Z,20.80
2023-02-11T20:16:55.701Z,21.42
2023-02-11T20:19:28.389Z,23.67
2023-02-11T20:21:55.669Z,22.90
2023-02-11T20:24:30.406Z,20.73
2023-02-11T20:26:56.793Z,21.13
2023-02-11T20:29:23.948Z,21.77
2023-02-11T20:31:58.619Z,22.35
2023-02-11T20:34:31.619Z,21.00
2023-02-11T20:37:04.490Z,25.20
2023-02-11T20:39:37.370Z,25.42
2023-02-11T20:42:10.383Z,23.30
2023-02-11T20:44:37.123Z,23.58
2023-02-11T20:47:10.414Z,22.50
2023-02-11T20:49:50.400Z,23.48
2023-02-11T20:52:23.436Z,24.48
2023-02-11T20:54:49.772Z,23.20
2023-02-11T20:57:22.436Z,21.15
2023-02-11T20:59:49.118Z,27.88
2023-02-11T21:02:15.416Z,23.05
2023-02-11T21:04:48.450Z,21.63
2023-02-11T21:07:21.417Z,21.13
2023-02-11T21:09:47.777Z,22.73
2023-02-11T21:12:27.427Z,25.05
2023-02-11T21:15:02.310Z,21.65
2023-02-11T21:17:35.447Z,25.02
2023-02-11T21:20:01.858Z,24.13
2023-02-11T21:22:34.496Z,24.92
2023-02-11T21:25:03.725Z,20.15
2023-02-11T21:27:39.508Z,20.70
2023-02-11T21:30:07.140Z,22.05
2023-02-11T21:32:33.451Z,28.33
2023-02-11T21:35:06.497Z,27.13
2023-02-11T21:37:34.247Z,26.17
2023-02-11T21:40:08.481Z,26.35
2023-02-11T21:42:35.440Z,30.90
2023-02-11T21:45:08.529Z,26.27
2023-02-11T21:47:34.938Z,28.50
2023-02-11T21:50:01.367Z,27.05
2023-02-11T21:52:34.620Z,25.20
2023-02-11T21:55:00.896Z,25.83
2023-02-11T21:57:33.586Z,26.25
2023-02-11T21:59:59.870Z,25.40
2023-02-11T22:02:33.591Z,24.98
2023-02-11T22:05:00.026Z,23.40
2023-02-11T22:07:34.551Z,27.38
2023-02-11T22:10:07.550Z,26.05
2023-02-11T22:12:48.573Z,23.10
2023-02-11T22:15:17.835Z,25.52
2023-02-11T22:17:50.561Z,28.38
2023-02-11T22:20:17.434Z,27.77
2023-02-11T22:22:50.597Z,26.55
2023-02-11T22:25:17.650Z,25.48
2023-02-11T22:27:50.587Z,28.42
2023-02-11T22:30:23.585Z,27.77
2023-02-11T22:32:56.614Z,29.27
2023-02-11T22:35:22.909Z,32.65
2023-02-11T22:37:55.596Z,33.33
2023-02-11T22:40:23.252Z,27.30
2023-02-11T22:42:55.596Z,22.17
2023-02-11T22:45:21.924Z,29.67
2023-02-11T22:47:54.633Z,32.90
2023-02-11T22:50:20.912Z,29.05
2023-02-11T22:52:47.185Z,31.63
2023-02-11T22:55:19.638Z,25.27
2023-02-11T22:57:52.689Z,22.15
2023-02-11T23:00:20.707Z,21.42
2023-02-11T23:02:47.220Z,23.65
2023-02-11T23:05:20.613Z,22.48
2023-02-11T23:07:49.786Z,21.13
2023-02-11T23:10:22.631Z,23.52
2023-02-11T23:12:55.906Z,22.05
2023-02-11T23:15:28.647Z,24.48
2023-02-11T23:17:55.192Z,27.10
2023-02-11T23:20:28.684Z,24.55
2023-02-11T23:22:56.613Z,27.77
2023-02-11T23:25:29.677Z,30.17
2023-02-11T23:27:56.359Z,27.33
2023-02-11T23:30:29.689Z,25.42
2023-02-11T23:32:56.037Z,25.67
2023-02-11T23:35:29.718Z,24.75
2023-02-11T23:38:02.713Z,21.58
2023-02-11T23:40:29.093Z,32.60
2023-02-11T23:42:55.434Z,24.75
2023-02-11T23:45:28.738Z,20.38
2023-02-11T23:48:02.718Z,20.35
2023-02-11T23:50:35.698Z,26.95
2023-02-11T23:53:08.755Z,26.73
2023-02-11T23:55:39.774Z,24.05
2023-02-11T23:58:06.170Z,26.98
